RJGG METAR and TAF | Updated Today

RJGG METAR

Chubu Centrair International Airport

Observation time: 17 min. ago

RJGG 291930Z AUTO 35007KT 9999 FEW025 SCT034 OVC039 21/19 Q1014 NOSIG

Need help? Read our tutorial on how to read METARs or read the parsed version below.

Chubu Centrair International Airport (RJGG) METAR

  • Weather conditions on Thu, 29 Sep 2022 19:30:00 +0000 (17 min. ago):
  • Present conditions: Dry
  • Clouds: A few at 762 meters; scattered at 1036 meters; overcast sky at 1189 meters
  • Visibility: Greater than 10 km
  • Wind: 350 degrees at 7 knots
  • Temperature: 21 celsius
  • Dew point: 19 celsius
  • Pressure: 1014 millibars
  • Remarks: None


Useful to know...

RJGG TAF

Chubu Centrair International Airport

TAF RJGG 291706Z 2918/0100 03005KT 9999 FEW020 BECMG 3002/3004 20010KT BECMG 3012/3015 35006KT
Observation time: 2:41 hr. ago
Need help? Read our tutorial on how to read TAFs or read the parsed version below.

Parsed version of TAF for Chubu Centrair International Airport (RJGG)

  • From 29 September at 18:00 UTC, to day 01 of the month at 00:00 UTC
  • Clouds: A few at 610 meters
  • Visibility: Greater than 10 km
  • Wind: 30 degrees at 5
  • Expected to arise soon, from 30 September at 02:00 UTC, to day 30 of the month at 04:00 UTC
  • Wind: 200 degrees at 10
  • Expected to arise soon, from 30 September at 12:00 UTC, to day 30 of the month at 15:00 UTC
  • Wind: 350 degrees at 6